Time;durP1;ratioP1;P1;durP2;ratioP2;P2;SDS_P1;SDS_P2;PMS_P1;PMS_P2;Temp;Humidity;BMP_temperature;BMP_pressure;BME280_temperature;BME280_humidity;BME280_pressure;Samples;Min_cycle;Max_cycle;Signal;HPM_P1;HPM_P2
2021/01/14 00:02:42;;;;;;;41.35;22.20;;;;;;;1.78;100.00;100683.09;5073322;28;20461;-75
2021/01/14 00:05:28;;;;;;;40.80;21.90;;;;;;;1.60;100.00;100681.91;5073696;28;20082;-74
2021/01/14 00:08:13;;;;;;;42.85;23.23;;;;;;;1.43;100.00;100686.75;5073339;28;20021;-74
2021/01/14 00:10:59;;;;;;;41.72;23.27;;;;;;;1.60;100.00;100682.75;5073593;28;20493;-74
2021/01/14 00:13:45;;;;;;;38.42;23.00;;;;;;;1.89;100.00;100684.13;5073457;28;20024;-75
2021/01/14 00:16:32;;;;;;;45.05;23.42;;;;;;;1.97;100.00;100685.09;5073662;28;20104;-75
2021/01/14 00:19:17;;;;;;;44.15;23.52;;;;;;;1.93;100.00;100683.31;5073073;28;20035;-75
2021/01/14 00:22:03;;;;;;;40.55;23.13;;;;;;;2.01;100.00;100679.16;5075703;28;20042;-74
2021/01/14 00:24:49;;;;;;;42.25;24.23;;;;;;;2.25;100.00;100691.59;5076772;28;20148;-75
2021/01/14 00:27:35;;;;;;;43.78;24.15;;;;;;;1.65;100.00;100688.00;5077171;28;20020;-74
2021/01/14 00:30:25;;;;;;;44.45;24.90;;;;;;;1.96;100.00;100698.00;5066947;28;20087;-74
2021/01/14 00:33:10;;;;;;;45.08;24.25;;;;;;;1.99;100.00;100708.38;5077421;28;20524;-75
2021/01/14 00:35:56;;;;;;;50.28;27.15;;;;;;;2.25;100.00;100709.69;5076656;28;20543;-74
2021/01/14 00:38:42;;;;;;;45.38;26.30;;;;;;;1.85;100.00;100705.56;5076524;28;20344;-76
2021/01/14 00:41:28;;;;;;;49.63;27.30;;;;;;;1.44;100.00;100716.88;5077406;28;20115;-74
2021/01/14 00:44:13;;;;;;;48.92;26.27;;;;;;;1.57;100.00;100721.41;5077291;28;20056;-74
2021/01/14 00:46:59;;;;;;;52.50;28.85;;;;;;;1.39;100.00;100720.22;5077278;28;20040;-74
2021/01/14 00:49:45;;;;;;;52.33;28.02;;;;;;;1.60;100.00;100708.56;5076171;28;20359;-74
2021/01/14 00:52:31;;;;;;;49.13;27.42;;;;;;;1.91;100.00;100705.69;5076588;28;20455;-74
2021/01/14 00:55:18;;;;;;;47.95;26.27;;;;;;;1.46;100.00;100701.41;5076169;28;20110;-75
2021/01/14 00:58:03;;;;;;;44.15;25.90;;;;;;;1.79;100.00;100700.31;5077054;28;20066;-74
2021/01/14 01:00:49;;;;;;;44.67;25.38;;;;;;;1.45;100.00;100702.28;5076474;28;20063;-73
2021/01/14 01:03:35;;;;;;;45.70;26.35;;;;;;;1.66;100.00;100700.06;5076797;28;20034;-74
2021/01/14 01:06:21;;;;;;;44.90;24.63;;;;;;;1.82;100.00;100700.38;5076184;28;20024;-73
2021/01/14 01:09:09;;;;;;;44.33;25.58;;;;;;;1.50;100.00;100698.94;5076880;28;20567;-74
2021/01/14 01:11:55;;;;;;;47.78;25.35;;;;;;;1.23;100.00;100694.94;5076645;28;20043;-74
2021/01/14 01:14:40;;;;;;;47.08;25.73;;;;;;;1.67;100.00;100694.06;5075909;28;20032;-74
2021/01/14 01:17:31;;;;;;;46.53;27.17;;;;;;;1.32;100.00;100693.41;5076289;28;20106;-76
2021/01/14 01:20:17;;;;;;;44.60;25.17;;;;;;;1.50;100.00;100685.16;5076417;28;20029;-75
2021/01/14 01:23:02;;;;;;;48.78;26.23;;;;;;;1.60;100.00;100681.91;5076353;28;20025;-74
2021/01/14 01:25:48;;;;;;;49.92;28.08;;;;;;;1.69;100.00;100687.22;5075237;28;20035;-74
2021/01/14 01:28:34;;;;;;;48.45;25.55;;;;;;;1.45;100.00;100692.78;5076439;28;20419;-74
2021/01/14 01:31:20;;;;;;;47.88;26.13;;;;;;;1.57;100.00;100687.84;5075251;28;20382;-75
2021/01/14 01:34:05;;;;;;;45.25;24.55;;;;;;;1.28;100.00;100683.88;5060901;28;20017;-74
2021/01/14 01:36:51;;;;;;;43.45;25.67;;;;;;;1.19;100.00;100682.81;5075648;28;20028;-74
2021/01/14 01:39:37;;;;;;;49.50;27.67;;;;;;;1.61;100.00;100675.91;5076531;28;20025;-74
2021/01/14 01:42:23;;;;;;;47.30;26.35;;;;;;;1.58;100.00;100678.41;5076148;28;20340;-74
2021/01/14 01:45:09;;;;;;;45.38;25.85;;;;;;;1.31;100.00;100678.78;5075954;28;20051;-74
2021/01/14 01:47:55;;;;;;;54.72;29.17;;;;;;;1.09;100.00;100676.66;5076258;28;20043;-74
2021/01/14 01:50:41;;;;;;;48.75;28.05;;;;;;;1.05;100.00;100676.53;5060571;28;20343;-74
2021/01/14 01:53:32;;;;;;;52.60;28.55;;;;;;;1.66;100.00;100671.66;5075561;28;20365;-74
2021/01/14 01:56:17;;;;;;;51.03;26.65;;;;;;;1.22;100.00;100677.72;5075785;28;20024;-74
2021/01/14 01:59:04;;;;;;;51.95;27.95;;;;;;;0.93;100.00;100678.88;5076170;28;20024;-74
2021/01/14 02:01:49;;;;;;;46.92;25.58;;;;;;;1.28;100.00;100673.56;5075827;28;20089;-74
2021/01/14 02:04:37;;;;;;;44.67;26.55;;;;;;;0.96;100.00;100674.63;5062349;28;20025;-74
2021/01/14 02:07:48;;;;;;;49.72;26.98;;;;;;;1.18;100.00;100670.78;5074692;28;20033;-74
2021/01/14 02:10:44;;;;;;;47.65;26.95;;;;;;;0.96;100.00;100666.91;5075837;28;20097;-75
2021/01/14 02:14:01;;;;;;;49.85;28.10;;;;;;;0.81;100.00;100660.56;5074580;28;20036;-74
2021/01/14 02:16:50;;;;;;;48.70;26.90;;;;;;;0.94;100.00;100665.13;5075014;28;20470;-74
2021/01/14 02:19:40;;;;;;;44.17;24.67;;;;;;;1.24;100.00;100664.00;5074477;28;20036;-74
2021/01/14 02:22:37;;;;;;;43.85;24.95;;;;;;;1.34;100.00;100647.00;5075353;28;20059;-75
2021/01/14 02:25:27;;;;;;;48.38;25.98;;;;;;;0.78;100.00;100648.50;5074250;28;20052;-73
2021/01/14 02:28:13;;;;;;;48.38;25.42;;;;;;;0.79;100.00;100647.66;5075041;28;20060;-74
2021/01/14 02:30:59;;;;;;;47.13;26.90;;;;;;;1.04;100.00;100649.03;5074117;28;20048;-73
2021/01/14 02:33:48;;;;;;;48.20;27.40;;;;;;;1.33;100.00;100651.28;5075638;28;20103;-73
2021/01/14 02:36:34;;;;;;;48.60;26.55;;;;;;;1.18;100.00;100645.84;5074515;28;20016;-74
2021/01/14 02:39:20;;;;;;;48.92;27.45;;;;;;;1.37;100.00;100647.91;5060962;28;20075;-74
2021/01/14 02:42:05;;;;;;;48.65;28.60;;;;;;;1.48;100.00;100646.41;5061130;28;20141;-75
2021/01/14 02:44:51;;;;;;;45.78;27.83;;;;;;;0.88;100.00;100652.13;5074353;28;20474;-74
2021/01/14 02:47:41;;;;;;;47.85;27.35;;;;;;;1.24;100.00;100648.53;5074375;28;20059;-74
2021/01/14 02:50:34;;;;;;;49.80;28.02;;;;;;;1.24;100.00;100645.97;5074426;28;20111;-74
2021/01/14 02:53:22;;;;;;;46.92;26.15;;;;;;;0.93;100.00;100653.97;5074521;28;20033;-75
2021/01/14 02:56:09;;;;;;;45.05;26.52;;;;;;;1.24;100.00;100651.13;5074161;28;20021;-74
2021/01/14 02:58:56;;;;;;;46.58;27.27;;;;;;;1.12;100.00;100653.47;5074418;28;20020;-74
2021/01/14 03:01:41;;;;;;;51.75;28.17;;;;;;;1.01;100.00;100647.25;5074822;28;20039;-74
2021/01/14 03:04:27;;;;;;;47.10;26.20;;;;;;;1.13;100.00;100644.91;5074708;28;20055;-74
2021/01/14 03:07:14;;;;;;;50.70;27.77;;;;;;;1.04;100.00;100636.97;5073627;28;20032;-74
2021/01/14 03:09:59;;;;;;;48.70;25.23;;;;;;;0.65;100.00;100643.94;5060355;28;20024;-74
2021/01/14 03:12:45;;;;;;;47.03;26.63;;;;;;;1.10;100.00;100644.84;5073694;28;20035;-73
2021/01/14 03:15:31;;;;;;;47.30;26.23;;;;;;;0.86;100.00;100646.06;5074377;28;20020;-74
2021/01/14 03:18:16;;;;;;;47.28;26.98;;;;;;;1.09;100.00;100658.59;5059639;28;20044;-74
2021/01/14 03:21:02;;;;;;;46.97;26.17;;;;;;;0.56;100.00;100642.88;5073688;28;20094;-74
2021/01/14 03:23:49;;;;;;;46.70;26.25;;;;;;;0.70;100.00;100650.06;5073673;28;20036;-74
2021/01/14 03:26:36;;;;;;;49.55;26.95;;;;;;;0.37;100.00;100648.47;5073560;28;20032;-73
2021/01/14 03:29:22;;;;;;;45.47;26.50;;;;;;;0.69;100.00;100655.16;5074011;28;20109;-74
2021/01/14 03:32:07;;;;;;;48.78;28.02;;;;;;;1.11;100.00;100662.06;5073558;28;20067;-75
2021/01/14 03:34:53;;;;;;;48.40;27.42;;;;;;;1.25;100.00;100650.31;5074072;28;20385;-74
2021/01/14 03:37:40;;;;;;;49.58;27.80;;;;;;;1.35;100.00;100657.34;5073350;28;20523;-73
2021/01/14 03:40:26;;;;;;;47.88;26.75;;;;;;;0.91;100.00;100657.34;5060554;28;20032;-75
2021/01/14 03:43:12;;;;;;;48.63;27.15;;;;;;;0.77;100.00;100651.94;5073241;28;20025;-74
2021/01/14 03:45:57;;;;;;;46.80;25.40;;;;;;;0.92;100.00;100665.09;5073842;28;20020;-74
2021/01/14 03:48:45;;;;;;;46.60;25.75;;;;;;;0.97;100.00;100654.88;5073208;28;20036;-74
2021/01/14 03:51:31;;;;;;;48.00;26.65;;;;;;;0.78;100.00;100651.06;5074394;28;20556;-74
2021/01/14 03:54:21;;;;;;;44.60;24.35;;;;;;;1.08;100.00;100649.09;5073659;28;20107;-74
2021/01/14 03:57:07;;;;;;;46.42;25.85;;;;;;;1.14;100.00;100638.03;5076620;28;20020;-74
2021/01/14 03:59:52;;;;;;;41.83;23.20;;;;;;;1.07;100.00;100637.03;5078173;28;20021;-74
2021/01/14 04:02:38;;;;;;;42.83;24.75;;;;;;;0.95;100.00;100635.91;5077157;28;20020;-73
2021/01/14 04:05:24;;;;;;;42.47;25.60;;;;;;;0.78;100.00;100632.16;5077374;28;20031;-75
2021/01/14 04:08:10;;;;;;;42.05;24.65;;;;;;;1.27;100.00;100638.28;5077348;28;20044;-74
2021/01/14 04:10:55;;;;;;;39.75;23.80;;;;;;;1.03;100.00;100645.56;5077870;28;20051;-74
2021/01/14 04:13:41;;;;;;;47.25;24.48;;;;;;;0.96;100.00;100642.84;5076852;28;20362;-74
2021/01/14 04:16:27;;;;;;;44.72;26.88;;;;;;;1.29;100.00;100641.75;5078012;28;20029;-74
2021/01/14 04:19:13;;;;;;;49.78;27.85;;;;;;;0.71;100.00;100645.75;5077339;28;20044;-74
2021/01/14 04:21:59;;;;;;;46.60;26.35;;;;;;;0.80;100.00;100627.91;5077797;28;20101;-73
2021/01/14 04:24:45;;;;;;;45.75;25.42;;;;;;;0.80;100.00;100631.34;5076977;28;20366;-74
2021/01/14 04:27:30;;;;;;;48.40;25.42;;;;;;;1.19;100.00;100631.22;5077292;28;20358;-74
2021/01/14 04:30:16;;;;;;;46.95;24.52;;;;;;;0.16;100.00;100635.97;5076754;28;20056;-74
2021/01/14 04:33:12;;;;;;;48.15;25.10;;;;;;;0.42;100.00;100636.53;5077303;28;20032;-73
2021/01/14 04:36:01;;;;;;;48.00;26.60;;;;;;;0.40;100.00;100638.22;5076968;28;20024;-74
2021/01/14 04:38:46;;;;;;;46.40;25.70;;;;;;;0.53;100.00;100625.63;5076611;28;20025;-74
2021/01/14 04:41:48;;;;;;;46.10;26.55;;;;;;;0.87;100.00;100633.19;5076621;28;20067;-74
2021/01/14 04:44:34;;;;;;;44.78;26.98;;;;;;;0.71;100.00;100623.41;5076530;28;20047;-74
2021/01/14 04:47:24;;;;;;;46.85;25.70;;;;;;;0.73;100.00;100610.56;5077575;28;20446;-74
2021/01/14 04:50:13;;;;;;;45.67;27.00;;;;;;;0.29;100.00;100608.78;5062915;28;20032;-74
2021/01/14 04:53:00;;;;;;;50.03;28.08;;;;;;;0.27;100.00;100621.63;5077206;28;20028;-73
2021/01/14 04:55:48;;;;;;;47.15;25.50;;;;;;;0.78;100.00;100617.56;5076353;28;20024;-73
2021/01/14 04:58:35;;;;;;;47.90;24.83;;;;;;;0.37;100.00;100617.53;5063236;28;20446;-73
2021/01/14 05:01:24;;;;;;;50.35;26.95;;;;;;;0.49;100.00;100621.25;5061934;28;20036;-73
2021/01/14 05:04:19;;;;;;;49.10;25.98;;;;;;;0.50;100.00;100623.00;5076935;28;20338;-74
2021/01/14 05:07:09;;;;;;;46.13;26.45;;;;;;;0.68;100.00;100622.50;5076658;28;20510;-74
2021/01/14 05:10:00;;;;;;;45.45;24.85;;;;;;;0.58;100.00;100618.88;5076857;28;20033;-73
2021/01/14 05:12:46;;;;;;;45.15;23.40;;;;;;;0.73;100.00;100619.19;5076253;28;20413;-74
2021/01/14 05:15:34;;;;;;;41.00;24.08;;;;;;;0.90;100.00;100622.97;5076407;28;20059;-74
2021/01/14 05:18:20;;;;;;;42.97;24.17;;;;;;;0.73;100.00;100618.31;5076641;28;20464;-73
2021/01/14 05:21:07;;;;;;;41.15;24.55;;;;;;;1.06;100.00;100604.34;5076373;28;20035;-74
2021/01/14 05:24:10;;;;;;;44.90;25.23;;;;;;;0.91;100.00;100611.78;5062269;28;20401;-74
2021/01/14 05:26:56;;;;;;;45.13;25.05;;;;;;;0.65;100.00;100610.44;5076075;28;20032;-74
2021/01/14 05:30:01;;;;;;;50.08;26.23;;;;;;;0.84;100.00;100614.22;5077338;28;20052;-74
2021/01/14 05:32:48;;;;;;;43.13;25.50;;;;;;;0.52;100.00;100610.13;5075730;28;20457;-73
2021/01/14 05:35:34;;;;;;;47.25;25.60;;;;;;;0.94;100.00;100608.41;5076729;28;20103;-74
2021/01/14 05:38:27;;;;;;;45.47;25.25;;;;;;;0.91;100.00;100609.22;5077063;28;20035;-74
2021/01/14 05:41:18;;;;;;;45.00;24.75;;;;;;;1.15;100.00;100601.94;5075635;28;20028;-74
2021/01/14 05:44:04;;;;;;;45.90;26.00;;;;;;;0.75;100.00;100603.72;5075920;28;20020;-73
2021/01/14 05:46:50;;;;;;;44.95;24.73;;;;;;;0.50;100.00;100602.38;5075090;28;20029;-73
2021/01/14 05:49:36;;;;;;;44.25;25.05;;;;;;;0.98;100.00;100610.19;5074398;28;20032;-75
2021/01/14 05:52:24;;;;;;;47.97;26.05;;;;;;;1.13;100.00;100611.38;5074961;28;20016;-74
2021/01/14 05:55:11;;;;;;;42.25;24.23;;;;;;;0.87;100.00;100611.69;5061334;28;20020;-74
2021/01/14 05:58:03;;;;;;;39.03;22.90;;;;;;;1.03;100.00;100609.44;5075367;28;20032;-74
2021/01/14 06:00:48;;;;;;;38.63;22.98;;;;;;;1.07;100.00;100611.25;5075021;28;20033;-74
2021/01/14 06:03:34;;;;;;;39.60;21.40;;;;;;;0.85;100.00;100608.22;5047588;28;20039;-74
2021/01/14 06:06:20;;;;;;;39.45;21.50;;;;;;;0.89;100.00;100610.91;5074842;28;20025;-74
2021/01/14 06:09:07;;;;;;;34.47;20.15;;;;;;;1.23;100.00;100600.38;5061321;28;20453;-75
2021/01/14 06:12:10;;;;;;;35.10;19.30;;;;;;;1.08;100.00;100602.66;5060956;28;20024;-74
2021/01/14 06:14:56;;;;;;;36.38;19.33;;;;;;;1.02;100.00;100599.09;5061224;28;20025;-74
2021/01/14 06:17:43;;;;;;;34.17;19.35;;;;;;;1.43;100.00;100601.56;5074388;28;20040;-73
2021/01/14 06:20:30;;;;;;;32.08;19.48;;;;;;;1.41;100.00;100592.06;5074693;28;20115;-74
2021/01/14 06:23:18;;;;;;;29.90;18.55;;;;;;;1.77;100.00;100598.69;5060742;28;20036;-74
2021/01/14 06:26:04;;;;;;;32.90;19.02;;;;;;;2.01;100.00;100596.47;5074921;28;20115;-75
2021/01/14 06:28:50;;;;;;;31.75;18.38;;;;;;;1.84;100.00;100592.78;5074397;28;20038;-74
2021/01/14 06:31:35;;;;;;;34.15;18.55;;;;;;;1.66;100.00;100599.38;5054320;28;20049;-74
2021/01/14 06:34:22;;;;;;;34.08;18.50;;;;;;;1.85;100.00;100610.00;5055337;28;20036;-74
2021/01/14 06:37:18;;;;;;;32.33;18.00;;;;;;;1.63;100.00;100605.38;5054125;28;20017;-74
2021/01/14 06:40:07;;;;;;;30.65;17.25;;;;;;;1.75;100.00;100615.00;5041774;28;20025;-73
2021/01/14 06:42:56;;;;;;;26.65;16.15;;;;;;;1.71;100.00;100613.22;5054032;28;20511;-74
2021/01/14 06:45:51;;;;;;;30.10;17.30;;;;;;;1.74;100.00;100610.69;5054269;28;20068;-75
2021/01/14 06:48:44;;;;;;;28.10;16.15;;;;;;;1.62;100.00;100607.91;5054250;28;20071;-74
2021/01/14 06:51:49;;;;;;;27.50;16.65;;;;;;;1.58;100.00;100614.75;5056638;28;20025;-74
2021/01/14 06:54:39;;;;;;;29.63;16.60;;;;;;;1.74;100.00;100610.69;5054658;28;20029;-74
2021/01/14 06:57:35;;;;;;;29.27;15.60;;;;;;;2.05;100.00;100610.31;5054508;28;20124;-75
2021/01/14 07:00:22;;;;;;;28.63;16.77;;;;;;;1.67;100.00;100603.69;5054748;28;20033;-75
2021/01/14 07:03:14;;;;;;;32.05;19.40;;;;;;;1.74;100.00;100606.41;5054454;28;20021;-74
2021/01/14 07:06:07;;;;;;;27.17;15.38;;;;;;;1.93;100.00;100612.72;5054194;28;20028;-75
2021/01/14 07:09:02;;;;;;;27.08;16.10;;;;;;;2.54;100.00;100602.41;5053733;28;20024;-75
2021/01/14 07:11:49;;;;;;;25.65;14.60;;;;;;;1.80;100.00;100600.47;5053511;28;20032;-74
2021/01/14 07:14:45;;;;;;;23.05;14.13;;;;;;;2.12;100.00;100594.94;5054555;28;20045;-74
2021/01/14 07:17:33;;;;;;;23.17;14.18;;;;;;;2.39;100.00;100600.47;5054749;28;20028;-75
2021/01/14 07:20:19;;;;;;;29.55;14.60;;;;;;;2.42;100.00;100613.47;5054217;28;20036;-74
2021/01/14 07:23:07;;;;;;;25.27;14.68;;;;;;;2.49;100.00;100614.41;5054305;28;20446;-74
2021/01/14 07:25:54;;;;;;;24.45;14.82;;;;;;;2.66;100.00;100621.50;5053633;28;20028;-75
2021/01/14 07:28:41;;;;;;;26.73;14.38;;;;;;;2.96;100.00;100614.13;5041043;28;20025;-76
2021/01/14 07:31:27;;;;;;;25.95;14.52;;;;;;;3.04;100.00;100620.25;5071975;28;20055;-74
2021/01/14 07:34:33;;;;;;;24.75;14.55;;;;;;;2.80;100.00;100622.56;5060349;28;20407;-75
2021/01/14 07:37:20;;;;;;;25.98;14.07;;;;;;;2.84;100.00;100615.69;5059633;28;20021;-75
2021/01/14 07:40:07;;;;;;;26.42;14.70;;;;;;;3.47;100.00;100606.00;5074196;28;20037;-75
2021/01/14 07:42:53;;;;;;;24.73;15.30;;;;;;;3.05;100.00;100608.19;5073651;28;20024;-75
2021/01/14 07:45:42;;;;;;;25.13;13.57;;;;;;;3.12;100.00;100612.56;5073693;28;20077;-75
2021/01/14 07:48:33;;;;;;;23.10;13.82;;;;;;;3.21;100.00;100610.06;5073341;28;20025;-75
2021/01/14 07:51:20;;;;;;;21.25;12.40;;;;;;;3.58;100.00;100606.97;5073612;28;20090;-75
2021/01/14 07:54:07;;;;;;;21.73;13.18;;;;;;;3.97;100.00;100607.28;5073228;28;20466;-75
2021/01/14 07:56:59;;;;;;;20.27;12.98;;;;;;;3.99;100.00;100606.41;5073253;28;20025;-75
2021/01/14 07:59:53;;;;;;;21.00;12.40;;;;;;;4.16;100.00;100603.97;5073165;28;20133;-75
2021/01/14 08:03:11;;;;;;;18.67;11.73;;;;;;;4.36;100.00;100597.16;5073006;28;20040;-74
2021/01/14 08:05:56;;;;;;;26.88;12.52;;;;;;;4.62;100.00;100600.75;5072803;28;20059;-75
2021/01/14 08:08:57;;;;;;;22.17;12.65;;;;;;;4.46;100.00;100604.16;5073223;28;20025;-75
2021/01/14 08:11:46;;;;;;;20.20;11.90;;;;;;;4.66;100.00;100598.19;5072858;28;20100;-75
2021/01/14 08:14:38;;;;;;;26.38;12.38;;;;;;;4.48;100.00;100597.22;5073042;28;20071;-75
2021/01/14 08:17:27;;;;;;;21.63;12.23;;;;;;;5.02;100.00;100587.94;5072986;28;20025;-74
2021/01/14 08:20:16;;;;;;;21.48;11.63;;;;;;;5.65;100.00;100592.34;5059919;28;20020;-75
2021/01/14 08:23:03;;;;;;;19.05;11.35;;;;;;;5.58;100.00;100590.59;5072850;28;20020;-76
2021/01/14 08:25:49;;;;;;;22.35;12.20;;;;;;;5.34;100.00;100585.38;5058051;28;20028;-75
2021/01/14 08:28:34;;;;;;;21.40;12.40;;;;;;;5.23;100.00;100581.94;5072915;28;20051;-75
2021/01/14 08:31:38;;;;;;;18.58;11.25;;;;;;;5.17;100.00;100597.47;5073060;28;20098;-74
2021/01/14 08:34:30;;;;;;;18.55;11.55;;;;;;;4.96;100.00;100598.31;5060087;28;20029;-75
2021/01/14 08:37:28;;;;;;;19.63;11.27;;;;;;;5.16;100.00;100591.41;5059092;28;20363;-75
2021/01/14 08:40:23;;;;;;;19.35;12.30;;;;;;;5.56;100.00;100591.47;5073071;28;20102;-75
2021/01/14 08:43:18;;;;;;;23.08;13.20;;;;;;;5.78;100.00;100598.44;5061434;28;20028;-74
2021/01/14 08:46:03;;;;;;;22.50;12.80;;;;;;;6.27;100.00;100597.53;5063103;28;20024;-75
2021/01/14 08:48:49;;;;;;;20.50;11.85;;;;;;;6.76;100.00;100586.09;5076981;28;20474;-75
2021/01/14 08:51:38;;;;;;;21.58;12.52;;;;;;;6.98;100.00;100587.69;5076499;28;20453;-75
2021/01/14 08:54:24;;;;;;;19.83;12.23;;;;;;;6.54;100.00;100589.63;5062920;28;20059;-74
2021/01/14 08:57:09;;;;;;;21.38;12.07;;;;;;;6.44;100.00;100588.81;5076151;28;20035;-75
2021/01/14 08:59:56;;;;;;;21.25;12.27;;;;;;;6.30;100.00;100590.56;5075933;28;20033;-75
2021/01/14 09:02:42;;;;;;;23.00;14.05;;;;;;;5.99;100.00;100580.25;5140499;22;20148;-75
2021/01/14 09:05:28;;;;;;;20.38;13.23;;;;;;;6.20;100.00;100572.38;5056898;28;20036;-75
2021/01/14 09:08:16;;;;;;;25.13;12.75;;;;;;;6.18;100.00;100569.78;5057287;28;20406;-75
2021/01/14 09:11:02;;;;;;;23.95;13.05;;;;;;;5.97;100.00;100566.34;5055665;28;20025;-74
2021/01/14 09:13:48;;;;;;;21.42;12.32;;;;;;;6.36;100.00;100563.69;5036523;28;20116;-75
2021/01/14 09:16:36;;;;;;;19.60;11.27;;;;;;;6.56;100.00;100564.47;5037302;28;20013;-74
2021/01/14 09:19:27;;;;;;;16.23;10.45;;;;;;;6.88;100.00;100549.56;5036239;28;20025;-75
2021/01/14 09:22:23;;;;;;;19.30;10.88;;;;;;;6.31;100.00;100557.63;5036573;28;20041;-74
2021/01/14 09:25:10;;;;;;;21.27;12.90;;;;;;;6.82;100.00;100544.38;5037231;28;20068;-74
2021/01/14 09:27:56;;;;;;;19.92;11.68;;;;;;;6.17;100.00;100543.78;5037682;28;20029;-75
2021/01/14 09:30:42;;;;;;;20.08;11.88;;;;;;;6.38;100.00;100535.94;5036796;28;20032;-76
2021/01/14 09:33:39;;;;;;;20.05;11.00;;;;;;;5.40;100.00;100521.31;5036266;28;20104;-75
2021/01/14 09:36:25;;;;;;;21.58;11.27;;;;;;;5.67;100.00;100519.59;5036708;28;20018;-75
2021/01/14 09:39:15;;;;;;;19.42;11.90;;;;;;;5.52;100.00;100527.38;5035779;28;20505;-75
2021/01/14 09:42:03;;;;;;;20.55;12.13;;;;;;;5.58;100.00;100514.41;5036475;28;20471;-75
2021/01/14 09:44:50;;;;;;;16.90;10.82;;;;;;;5.48;100.00;100519.56;5036443;28;20026;-75
2021/01/14 09:47:37;;;;;;;18.95;10.80;;;;;;;5.39;100.00;100510.94;5035780;28;20041;-75
2021/01/14 09:50:24;;;;;;;18.75;11.23;;;;;;;5.11;100.00;100515.25;5036363;28;20040;-74
2021/01/14 09:53:10;;;;;;;18.40;10.85;;;;;;;5.39;100.00;100500.56;5035920;28;20044;-76
2021/01/14 09:55:56;;;;;;;18.50;11.40;;;;;;;5.52;100.00;100499.69;5035168;28;20112;-75
2021/01/14 09:58:45;;;;;;;16.98;10.48;;;;;;;5.19;100.00;100497.94;5036057;28;20071;-76
2021/01/14 10:01:37;;;;;;;16.77;10.15;;;;;;;5.11;100.00;100494.47;5035408;28;20048;-75
2021/01/14 10:04:25;;;;;;;17.50;9.73;;;;;;;5.00;100.00;100490.13;5036906;28;20032;-76
2021/01/14 10:07:17;;;;;;;20.92;10.93;;;;;;;5.30;100.00;100480.63;5035881;28;20041;-74
2021/01/14 10:10:04;;;;;;;18.55;9.68;;;;;;;4.92;100.00;100473.69;5036216;28;20068;-78
2021/01/14 10:13:00;;;;;;;17.58;10.27;;;;;;;5.22;100.00;100471.09;5035910;28;20110;-74
2021/01/14 10:15:45;;;;;;;16.33;9.52;;;;;;;5.31;100.00;100471.97;5036757;28;20116;-75
2021/01/14 10:18:31;;;;;;;18.35;10.02;;;;;;;4.85;100.00;100461.56;5035263;28;20211;-75
2021/01/14 10:21:23;;;;;;;18.00;10.32;;;;;;;5.56;100.00;100457.22;5035772;28;20060;-75
2021/01/14 10:24:33;;;;;;;19.55;10.57;;;;;;;5.18;100.00;100449.47;5035421;28;20109;-74
2021/01/14 10:27:21;;;;;;;17.63;11.05;;;;;;;4.64;100.00;100440.78;5035281;28;20033;-75
2021/01/14 10:30:42;;;;;;;15.80;9.65;;;;;;;4.79;100.00;100422.63;5035043;28;20026;-75
2021/01/14 10:33:28;;;;;;;17.77;10.90;;;;;;;5.04;100.00;100430.44;5034631;28;20045;-75
2021/01/14 10:36:14;;;;;;;19.63;10.80;;;;;;;5.39;100.00;100422.63;5035528;28;20029;-74
2021/01/14 10:38:59;;;;;;;18.13;9.93;;;;;;;5.47;100.00;100415.69;5035446;28;20026;-75
2021/01/14 10:41:46;;;;;;;17.10;10.80;;;;;;;5.59;100.00;100409.59;5035149;28;20025;-75
2021/01/14 10:44:31;;;;;;;19.15;9.65;;;;;;;5.68;100.00;100393.97;5035523;28;20477;-75
2021/01/14 10:47:21;;;;;;;15.98;9.85;;;;;;;6.06;100.00;100382.59;5035238;28;20036;-75
2021/01/14 10:50:20;;;;;;;17.35;10.57;;;;;;;5.66;100.00;100378.38;5034966;28;20116;-75
2021/01/14 10:53:05;;;;;;;14.70;9.80;;;;;;;5.98;100.00;100371.34;5034096;28;20039;-73
2021/01/14 10:56:08;;;;;;;16.33;9.98;;;;;;;5.83;100.00;100360.16;5034898;28;20468;-75
2021/01/14 10:58:55;;;;;;;11.95;8.40;;;;;;;6.13;100.00;100353.09;5035411;28;20091;-75
2021/01/14 11:01:41;;;;;;;17.50;9.05;;;;;;;5.94;100.00;100346.25;5033865;28;20124;-74
2021/01/14 11:04:27;;;;;;;18.00;10.00;;;;;;;6.31;100.00;100347.75;5035076;28;20040;-75
2021/01/14 11:07:13;;;;;;;15.98;9.68;;;;;;;6.58;100.00;100338.91;5033363;28;20044;-75
2021/01/14 11:10:06;;;;;;;13.43;8.80;;;;;;;6.60;100.00;100327.63;5034514;28;20037;-75
2021/01/14 11:13:15;;;;;;;16.98;9.40;;;;;;;6.32;100.00;100317.41;5035963;28;20098;-74
2021/01/14 11:16:01;;;;;;;15.30;7.93;;;;;;;6.08;100.00;100301.97;5034371;28;20109;-74
2021/01/14 11:18:49;;;;;;;12.57;8.63;;;;;;;6.68;100.00;100299.81;5033405;28;20036;-74
2021/01/14 11:21:35;;;;;;;20.88;11.10;;;;;;;6.98;100.00;100298.63;5034826;28;20021;-75
2021/01/14 11:24:21;;;;;;;16.08;8.77;;;;;;;6.45;100.00;100304.31;5034715;28;20026;-74
2021/01/14 11:27:07;;;;;;;18.58;10.57;;;;;;;6.38;100.00;100299.19;5033661;28;20026;-74
2021/01/14 11:29:52;;;;;;;12.23;7.78;;;;;;;6.45;100.00;100287.84;5034167;28;20053;-74
2021/01/14 11:32:38;;;;;;;15.77;8.20;;;;;;;5.99;100.00;100283.84;5033987;28;20029;-75
2021/01/14 11:35:24;;;;;;;14.73;8.02;;;;;;;6.06;100.00;100275.97;5034462;28;20051;-75
2021/01/14 11:38:09;;;;;;;14.98;8.27;;;;;;;6.13;100.00;100271.59;5034002;28;20495;-74
2021/01/14 11:40:55;;;;;;;12.98;8.13;;;;;;;6.75;100.00;100269.38;5034080;28;20104;-76
2021/01/14 11:43:41;;;;;;;13.30;8.55;;;;;;;6.97;100.00;100268.25;5033780;28;20192;-76
2021/01/14 11:46:27;;;;;;;12.90;7.80;;;;;;;5.85;100.00;100268.31;5034901;28;20133;-74
2021/01/14 11:49:12;;;;;;;14.23;7.93;;;;;;;6.03;100.00;100272.53;5033758;28;20029;-76
2021/01/14 11:51:58;;;;;;;13.55;8.43;;;;;;;5.83;100.00;100266.59;5033888;28;20033;-75
2021/01/14 11:54:46;;;;;;;16.73;10.13;;;;;;;6.54;100.00;100267.81;5033963;28;20083;-75
2021/01/14 11:57:33;;;;;;;14.07;7.97;;;;;;;6.75;100.00;100252.00;5033797;28;20029;-75
2021/01/14 12:00:19;;;;;;;11.60;7.38;;;;;;;5.80;100.00;100256.16;5033856;28;20041;-75
2021/01/14 12:03:06;;;;;;;11.30;7.80;;;;;;;6.69;100.00;100241.66;5032754;28;20364;-74
2021/01/14 12:05:52;;;;;;;12.48;7.43;;;;;;;7.11;100.00;100235.16;5033352;28;20417;-76
2021/01/14 12:08:38;;;;;;;12.70;7.13;;;;;;;7.06;100.00;100229.09;5034948;28;20026;-75
2021/01/14 12:11:26;;;;;;;12.15;7.40;;;;;;;6.15;100.00;100234.28;5034177;28;20029;-75
2021/01/14 12:14:13;;;;;;;11.57;7.68;;;;;;;6.55;100.00;100235.69;5033710;28;20096;-75
2021/01/14 12:16:58;;;;;;;12.80;7.05;;;;;;;7.07;100.00;100243.88;5035367;28;20018;-76
2021/01/14 12:19:44;;;;;;;12.70;7.70;;;;;;;6.58;100.00;100247.81;5037439;28;20104;-75
2021/01/14 12:22:32;;;;;;;11.02;6.80;;;;;;;6.30;100.00;100249.78;5038877;28;20025;-75
2021/01/14 12:25:17;;;;;;;14.52;6.72;;;;;;;6.83;100.00;100254.53;5037291;28;20367;-75
2021/01/14 12:28:03;;;;;;;11.90;7.00;;;;;;;6.48;100.00;100254.88;5037796;28;20040;-75
2021/01/14 12:30:49;;;;;;;9.75;6.32;;;;;;;6.47;100.00;100247.06;5037261;28;20529;-75
2021/01/14 12:33:35;;;;;;;12.50;7.05;;;;;;;6.35;100.00;100250.59;5038679;28;20041;-76
2021/01/14 12:36:21;;;;;;;11.82;7.00;;;;;;;6.25;100.00;100250.69;5037845;28;20036;-75
2021/01/14 12:39:06;;;;;;;11.07;6.80;;;;;;;5.76;100.00;100254.47;5037836;28;20026;-75
2021/01/14 12:41:52;;;;;;;11.23;5.97;;;;;;;6.21;100.00;100244.66;5037216;28;20021;-74
2021/01/14 12:44:38;;;;;;;15.07;7.40;;;;;;;6.16;100.00;100255.97;5037262;28;20021;-75
2021/01/14 12:47:24;;;;;;;13.07;6.95;;;;;;;6.22;100.00;100263.75;5036708;28;20099;-75